Poulan, Georgia
Current Conditions -  °F | °C
As of 7:55 PM on Saturday 22 Nov 2014 (Local Time) from KTMA Reporting Station
Light Rain Light Rain  
Wind Chill: 58°   Ceiling: 2500
Heat Index: 58°   Visibility: 10mi
Dew Point: 57°   Wind: 5mph
Humidity: 95%   Direction: 80°E
Pressure: 30.2"   Gusts: NA
Location:  31.51°N, 83.79°W
Report Text: KTMA 230055Z AUTO 08004KT 10SM -RA BKN025 BKN055 OVC065 15/14 A3020 RMK AO2 T01450137
Loading
Personal Weather Stations






























Interactive Weather Map New forecast layout! Learn more

10-Day Weather Forecast

Advertisements
Track Severe Weather on mobile